Toledo, Ohio
Current Conditions -  °F | °C
As of 8:53 AM on Monday 22 Dec 2014 (Local Time) from KTDZ Reporting Station
Haze Haze  
Wind Chill: 19°   Ceiling: Unl
Heat Index: 27°   Visibility: 4mi
Dew Point: 21°   Wind: 7mph
Humidity: 78%   Direction: 90°E
Pressure: 30.08"   Gusts: NA
Location:  41.65°N, 83.54°W
Report Text: KTDZ 221353Z AUTO 09006KT 4SM HZ CLR M03/M06 A3008 RMK AO2 SLP194 T10281061 TSNO
Loading
Personal Weather Stations






























Interactive Weather Map New forecast layout! Learn more

10-Day Weather Forecast

Advertisements
Track Severe Weather on mobile